Time;durP1;ratioP1;P1;durP2;ratioP2;P2;SDS_P1;SDS_P2;PMS_P1;PMS_P2;Temp;Humidity;BMP_temperature;BMP_pressure;BME280_temperature;BME280_humidity;BME280_pressure;Samples;Min_cycle;Max_cycle;Signal;HPM_P1;HPM_P2
2021/05/02 00:00:38;;;;;;;22.00;13.52;;;6.00;81.80;;;;;;5091961;28;20404;-62
2021/05/02 00:03:05;;;;;;;23.77;13.88;;;6.00;81.70;;;;;;5086078;28;20776;-62
2021/05/02 00:05:32;;;;;;;22.48;13.45;;;5.90;82.40;;;;;;5055227;28;20514;-63
2021/05/02 00:07:57;;;;;;;21.85;13.40;;;5.90;82.60;;;;;;5072388;28;20047;-62
2021/05/02 00:10:25;;;;;;;22.63;13.63;;;5.80;82.80;;;;;;5072604;28;20417;-62
2021/05/02 00:12:50;;;;;;;18.60;12.88;;;5.80;82.60;;;;;;5071943;28;20084;-62
2021/05/02 00:15:18;;;;;;;18.63;12.63;;;5.80;82.70;;;;;;5072778;28;20059;-62
2021/05/02 00:17:44;;;;;;;20.88;13.23;;;5.70;83.10;;;;;;5090344;28;20085;-63
2021/05/02 00:20:11;;;;;;;19.13;12.90;;;5.70;83.10;;;;;;5072212;28;20020;-63
2021/05/02 00:22:37;;;;;;;18.05;12.48;;;5.70;82.80;;;;;;5069932;28;20027;-63
2021/05/02 00:25:04;;;;;;;19.65;13.38;;;5.70;82.50;;;;;;5082378;28;20058;-63
2021/05/02 00:27:30;;;;;;;24.33;12.75;;;5.70;82.60;;;;;;5092406;28;20039;-63
2021/05/02 00:29:55;;;;;;;17.77;12.23;;;5.70;82.90;;;;;;5110602;28;20106;-63
2021/05/02 00:32:21;;;;;;;18.05;12.13;;;5.60;83.30;;;;;;5110467;28;20102;-63
2021/05/02 00:34:47;;;;;;;16.92;12.65;;;5.60;83.00;;;;;;5058100;28;20024;-63
2021/05/02 00:37:13;;;;;;;22.65;11.80;;;5.60;83.20;;;;;;5092702;28;20396;-63
2021/05/02 00:39:39;;;;;;;18.05;11.57;;;5.50;83.80;;;;;;5091144;28;20023;-63
2021/05/02 00:42:07;;;;;;;16.02;11.70;;;5.50;83.20;;;;;;5075796;28;20012;-63
2021/05/02 00:45:03;;;;;;;18.40;12.48;;;5.50;84.00;;;;;;5110124;28;20043;-64
2021/05/02 00:47:53;;;;;;;16.63;11.95;;;5.60;83.50;;;;;;5110482;28;20020;-63
2021/05/02 00:50:20;;;;;;;16.73;11.38;;;5.60;83.60;;;;;;5079319;28;20063;-63
2021/05/02 00:52:50;;;;;;;21.20;11.52;;;5.50;83.20;;;;;;5073398;28;20039;-63
2021/05/02 00:55:22;;;;;;;18.35;12.07;;;5.50;83.10;;;;;;5110422;28;20072;-63
2021/05/02 00:58:25;;;;;;;17.55;11.55;;;5.50;83.60;;;;;;5090821;28;20047;-63
2021/05/02 01:00:52;;;;;;;22.42;12.20;;;5.50;83.80;;;;;;5078931;28;20042;-63
2021/05/02 01:03:18;;;;;;;18.38;12.68;;;5.50;83.20;;;;;;5075580;28;20081;-63
2021/05/02 01:05:44;;;;;;;18.20;12.15;;;5.50;83.50;;;;;;5074210;28;20098;-63
2021/05/02 01:08:09;;;;;;;18.10;12.02;;;5.40;83.60;;;;;;5092277;28;20506;-63
2021/05/02 01:10:35;;;;;;;21.23;13.13;;;5.40;83.60;;;;;;5091215;28;20064;-63
2021/05/02 01:13:01;;;;;;;20.58;12.77;;;5.40;83.50;;;;;;5110133;28;20126;-63
2021/05/02 01:15:28;;;;;;;20.38;12.25;;;5.40;83.60;;;;;;5109869;28;20023;-63
2021/05/02 01:18:06;;;;;;;19.45;13.27;;;5.40;83.70;;;;;;5109593;28;20027;-63
2021/05/02 01:20:33;;;;;;;18.63;12.98;;;5.30;83.80;;;;;;5091479;28;20020;-63
2021/05/02 01:23:03;;;;;;;21.70;13.82;;;5.30;83.80;;;;;;5089334;28;20795;-63
2021/05/02 01:25:29;;;;;;;18.73;13.63;;;5.30;84.00;;;;;;5092289;28;20045;-63
2021/05/02 01:27:56;;;;;;;23.40;14.50;;;5.20;84.10;;;;;;5091263;28;20126;-63
2021/05/02 01:30:23;;;;;;;17.23;12.93;;;5.20;84.30;;;;;;5109991;28;20043;-63
2021/05/02 01:32:48;;;;;;;18.92;13.52;;;5.20;84.20;;;;;;5074629;28;20403;-63
2021/05/02 01:35:14;;;;;;;20.60;13.23;;;5.10;84.30;;;;;;5109742;28;20073;-63
2021/05/02 01:37:40;;;;;;;22.27;13.65;;;5.10;84.20;;;;;;5090831;28;20046;-63
2021/05/02 01:40:06;;;;;;;21.45;14.45;;;5.10;84.00;;;;;;5058568;28;20370;-63
2021/05/02 01:42:31;;;;;;;18.63;13.48;;;5.10;84.50;;;;;;5109560;28;20382;-63
2021/05/02 01:44:57;;;;;;;23.40;14.73;;;5.10;84.50;;;;;;5091142;28;20032;-63
2021/05/02 01:47:23;;;;;;;22.20;13.30;;;5.00;84.40;;;;;;5091535;28;20032;-63
2021/05/02 01:49:56;;;;;;;23.67;13.88;;;5.00;84.80;;;;;;5074170;28;20092;-63
2021/05/02 01:52:21;;;;;;;26.30;14.35;;;5.00;84.50;;;;;;5113765;28;20023;-63
2021/05/02 01:54:47;;;;;;;22.73;13.73;;;5.00;84.40;;;;;;5093003;28;20076;-63
2021/05/02 01:57:25;;;;;;;17.55;13.27;;;5.00;84.50;;;;;;5095523;28;20152;-63
2021/05/02 01:59:51;;;;;;;21.13;13.50;;;4.90;84.40;;;;;;5095191;28;20064;-63
2021/05/02 02:02:16;;;;;;;22.05;13.63;;;4.90;84.60;;;;;;5078866;28;20019;-63
2021/05/02 02:04:44;;;;;;;19.85;12.65;;;4.90;84.40;;;;;;5094416;28;20019;-63
2021/05/02 02:07:12;;;;;;;22.90;13.48;;;4.80;84.20;;;;;;5095747;28;20366;-63
2021/05/02 02:09:38;;;;;;;25.98;13.68;;;4.90;84.40;;;;;;5094733;28;20033;-63
2021/05/02 02:12:04;;;;;;;20.92;12.15;;;4.90;84.20;;;;;;5078325;28;20028;-63
2021/05/02 02:14:29;;;;;;;24.33;14.10;;;4.80;84.20;;;;;;5094955;28;20043;-63
2021/05/02 02:16:55;;;;;;;19.25;12.60;;;4.80;84.40;;;;;;5078052;28;20032;-63
2021/05/02 02:19:21;;;;;;;20.25;11.63;;;4.80;84.90;;;;;;5077713;28;20020;-63
2021/05/02 02:21:47;;;;;;;26.90;12.82;;;4.80;84.60;;;;;;5113074;28;20109;-63
2021/05/02 02:24:12;;;;;;;20.42;11.95;;;4.80;84.30;;;;;;5093255;28;20969;-63
2021/05/02 02:26:43;;;;;;;16.90;11.43;;;4.80;84.20;;;;;;5111849;28;20110;-63
2021/05/02 02:29:09;;;;;;;19.17;12.15;;;4.80;84.10;;;;;;5061985;28;20046;-63
2021/05/02 02:31:35;;;;;;;23.25;11.90;;;4.70;84.30;;;;;;5094242;28;20015;-63
2021/05/02 02:34:03;;;;;;;17.38;11.35;;;4.70;84.70;;;;;;5113002;28;20343;-63
2021/05/02 02:36:28;;;;;;;19.13;11.35;;;4.80;83.90;;;;;;5094849;28;20095;-63
2021/05/02 02:38:54;;;;;;;21.73;11.55;;;4.80;83.70;;;;;;5094361;28;20095;-63
2021/05/02 02:41:19;;;;;;;21.45;11.38;;;4.80;83.90;;;;;;5094150;28;20020;-63
2021/05/02 02:44:05;;;;;;;23.20;11.50;;;4.80;83.70;;;;;;5077459;28;20084;-63
2021/05/02 02:46:30;;;;;;;19.02;10.27;;;4.80;84.00;;;;;;5077982;28;20339;-63
2021/05/02 02:48:57;;;;;;;15.93;10.45;;;4.70;83.80;;;;;;5111848;28;20057;-63
2021/05/02 02:51:25;;;;;;;17.60;10.15;;;4.70;83.60;;;;;;5112757;28;20051;-63
2021/05/02 02:53:51;;;;;;;22.50;10.40;;;4.70;83.60;;;;;;5091809;28;20450;-63
2021/05/02 02:56:19;;;;;;;13.68;10.02;;;4.70;84.00;;;;;;5094307;28;20073;-63
2021/05/02 02:59:07;;;;;;;17.48;10.27;;;4.60;84.00;;;;;;5094072;28;20407;-63
2021/05/02 03:01:33;;;;;;;17.75;10.05;;;4.60;84.10;;;;;;5094271;28;20019;-63
2021/05/02 03:03:58;;;;;;;17.58;10.65;;;4.60;84.30;;;;;;5092939;28;20023;-63
2021/05/02 03:06:28;;;;;;;19.05;9.77;;;4.60;84.10;;;;;;5077404;28;20466;-63
2021/05/02 03:08:55;;;;;;;18.83;9.02;;;4.60;83.70;;;;;;5093589;28;20362;-63
2021/05/02 03:11:21;;;;;;;16.02;8.85;;;4.60;84.10;;;;;;5093815;28;20035;-63
2021/05/02 03:13:47;;;;;;;20.35;10.82;;;4.60;83.90;;;;;;5093451;28;20412;-63
2021/05/02 03:16:12;;;;;;;17.17;9.73;;;4.70;83.80;;;;;;5077643;28;20095;-63
2021/05/02 03:18:51;;;;;;;14.52;8.65;;;4.70;84.30;;;;;;5111274;28;20024;-63
2021/05/02 03:21:22;;;;;;;13.20;8.63;;;4.60;83.80;;;;;;5077998;28;20032;-63
2021/05/02 03:23:49;;;;;;;11.80;8.25;;;4.60;83.80;;;;;;5109603;28;20474;-63
2021/05/02 03:26:14;;;;;;;19.58;9.65;;;4.60;83.70;;;;;;5093633;28;20024;-63
2021/05/02 03:28:54;;;;;;;19.75;9.30;;;4.60;83.90;;;;;;5076169;28;20026;-63
2021/05/02 03:31:24;;;;;;;13.57;9.30;;;4.60;83.60;;;;;;5095070;28;20035;-65
2021/05/02 03:33:52;;;;;;;21.75;9.10;;;4.60;83.50;;;;;;5110850;28;20027;-63
2021/05/02 03:36:23;;;;;;;19.65;9.10;;;4.60;83.70;;;;;;5112239;28;20358;-63
2021/05/02 03:38:51;;;;;;;16.50;8.38;;;4.50;83.70;;;;;;5092934;28;20016;-63
2021/05/02 03:41:17;;;;;;;15.52;8.80;;;4.60;83.30;;;;;;5093169;28;20451;-63
2021/05/02 03:43:43;;;;;;;14.48;8.48;;;4.60;83.50;;;;;;5110810;28;20034;-63
2021/05/02 03:46:23;;;;;;;14.10;10.02;;;4.50;83.60;;;;;;5112170;28;20032;-63
2021/05/02 03:49:02;;;;;;;17.38;9.82;;;4.50;83.90;;;;;;5094849;28;20503;-63
2021/05/02 03:51:30;;;;;;;20.00;10.07;;;4.50;83.90;;;;;;5093900;28;20038;-63
2021/05/02 03:53:56;;;;;;;16.23;10.05;;;4.50;84.00;;;;;;5108755;28;20030;-63
2021/05/02 03:56:31;;;;;;;14.50;10.13;;;4.60;84.50;;;;;;5111162;28;20016;-63
2021/05/02 03:59:16;;;;;;;17.65;10.27;;;4.60;84.00;;;;;;5111128;28;20023;-63
2021/05/02 04:01:49;;;;;;;19.13;10.40;;;4.60;84.20;;;;;;5091907;28;20501;-63
2021/05/02 04:04:16;;;;;;;16.02;10.57;;;4.60;84.00;;;;;;5111660;28;20032;-63
2021/05/02 04:06:43;;;;;;;15.80;10.15;;;4.60;84.10;;;;;;5110527;28;20098;-63
2021/05/02 04:09:10;;;;;;;15.98;10.27;;;4.60;84.00;;;;;;5093050;28;20365;-63
2021/05/02 04:11:36;;;;;;;14.73;10.13;;;4.70;83.70;;;;;;5075595;28;20031;-63
2021/05/02 04:14:04;;;;;;;16.35;10.35;;;4.60;83.80;;;;;;5075123;28;20784;-63
2021/05/02 04:16:29;;;;;;;18.42;11.05;;;4.60;84.00;;;;;;5092615;28;20035;-63
2021/05/02 04:18:55;;;;;;;18.08;10.80;;;4.60;83.80;;;;;;5110734;28;20031;-63
2021/05/02 04:21:21;;;;;;;19.00;10.93;;;4.60;83.70;;;;;;5111183;28;20449;-63
2021/05/02 04:23:46;;;;;;;19.50;11.10;;;4.70;83.50;;;;;;5107737;28;20484;-63
2021/05/02 04:26:12;;;;;;;20.27;11.05;;;4.60;83.40;;;;;;5092787;28;20019;-63
2021/05/02 04:28:38;;;;;;;18.90;10.55;;;4.70;83.30;;;;;;5109991;28;20023;-63
2021/05/02 04:31:03;;;;;;;13.98;10.32;;;4.70;83.00;;;;;;5110607;28;20024;-63
2021/05/02 04:33:29;;;;;;;19.05;10.52;;;4.80;82.60;;;;;;5110914;28;20023;-63
2021/05/02 04:35:55;;;;;;;17.38;10.55;;;4.90;82.40;;;;;;5110286;28;20020;-63
2021/05/02 04:38:20;;;;;;;15.20;9.73;;;5.00;82.10;;;;;;5092335;28;20098;-63
2021/05/02 04:40:46;;;;;;;15.63;9.13;;;5.30;81.10;;;;;;5091619;28;20031;-63
2021/05/02 04:43:12;;;;;;;17.73;9.38;;;5.40;80.80;;;;;;5110867;28;20518;-63
2021/05/02 04:45:38;;;;;;;13.80;9.25;;;5.40;81.00;;;;;;5109675;28;20110;-63
2021/05/02 04:48:04;;;;;;;13.70;8.95;;;5.50;80.40;;;;;;5092257;28;20023;-63
2021/05/02 04:50:30;;;;;;;13.65;8.40;;;6.00;79.50;;;;;;5092214;28;20028;-63
2021/05/02 04:52:56;;;;;;;13.07;8.10;;;6.60;77.70;;;;;;5108008;28;20020;-63
2021/05/02 04:55:21;;;;;;;14.40;7.63;;;7.40;75.20;;;;;;5109796;28;20027;-63
2021/05/02 04:57:47;;;;;;;13.20;7.90;;;7.80;73.20;;;;;;5109890;28;20018;-63
2021/05/02 05:00:13;;;;;;;13.18;7.13;;;8.20;72.00;;;;;;5110870;28;20070;-63
2021/05/02 05:02:39;;;;;;;14.48;7.55;;;8.20;72.50;;;;;;5109246;28;20019;-64
2021/05/02 05:05:05;;;;;;;10.45;6.95;;;9.00;70.30;;;;;;5110587;28;20024;-63
2021/05/02 05:07:31;;;;;;;11.70;6.30;;;9.70;68.50;;;;;;5110117;28;20358;-63
2021/05/02 05:09:56;;;;;;;9.35;5.72;;;10.20;66.40;;;;;;5109358;28;20095;-63
2021/05/02 05:12:22;;;;;;;16.77;6.63;;;10.50;65.50;;;;;;5109785;28;20072;-64
2021/05/02 05:14:47;;;;;;;11.57;6.20;;;11.00;64.60;;;;;;5109621;28;20382;-63
2021/05/02 05:17:13;;;;;;;9.98;5.40;;;11.40;63.50;;;;;;5110374;28;20047;-64
2021/05/02 05:19:39;;;;;;;8.10;5.38;;;11.50;62.10;;;;;;5109370;28;20032;-63
2021/05/02 05:22:04;;;;;;;11.07;5.25;;;10.40;64.40;;;;;;5110366;28;20474;-64
2021/05/02 05:24:30;;;;;;;10.00;5.70;;;9.50;67.70;;;;;;5107306;28;20103;-64
2021/05/02 05:26:55;;;;;;;9.68;6.13;;;11.60;61.80;;;;;;5109390;28;20027;-64
2021/05/02 05:29:21;;;;;;;8.55;4.75;;;12.90;59.00;;;;;;5109718;28;20373;-63
2021/05/02 05:31:47;;;;;;;7.88;4.50;;;13.40;58.00;;;;;;5109039;28;20374;-63
2021/05/02 05:34:12;;;;;;;8.82;4.75;;;13.30;57.50;;;;;;5109991;28;20073;-63
2021/05/02 05:36:38;;;;;;;7.40;4.55;;;11.60;60.80;;;;;;5109220;28;20032;-63
2021/05/02 05:39:04;;;;;;;8.60;4.22;;;10.40;63.80;;;;;;5091608;28;20034;-63
2021/05/02 05:41:29;;;;;;;7.25;4.07;;;12.00;60.70;;;;;;5109557;28;20028;-63
2021/05/02 05:43:55;;;;;;;8.32;3.95;;;13.10;56.60;;;;;;5109074;28;20024;-63
2021/05/02 05:46:20;;;;;;;8.18;4.35;;;13.50;55.00;;;;;;5109163;28;20020;-63
2021/05/02 05:48:46;;;;;;;8.88;3.45;;;13.30;55.60;;;;;;5109341;28;20040;-64
2021/05/02 05:51:12;;;;;;;12.77;4.15;;;12.80;55.60;;;;;;5091589;28;20044;-63
2021/05/02 05:53:37;;;;;;;7.15;3.58;;;13.00;58.90;;;;;;5087984;28;20462;-64
2021/05/02 05:56:03;;;;;;;7.38;3.50;;;13.20;56.90;;;;;;5109707;28;20027;-63
2021/05/02 05:58:31;;;;;;;8.75;3.20;;;13.20;58.30;;;;;;5109264;28;20071;-64
2021/05/02 06:00:57;;;;;;;11.68;3.50;;;13.70;57.00;;;;;;5108351;28;20458;-64
2021/05/02 06:03:22;;;;;;;7.75;3.00;;;14.40;54.30;;;;;;5109018;28;20031;-64
2021/05/02 06:05:48;;;;;;;8.82;3.30;;;15.60;50.90;;;;;;5090782;28;20027;-64
2021/05/02 06:08:14;;;;;;;7.00;3.35;;;16.10;51.00;;;;;;5106009;28;20044;-64
2021/05/02 06:10:39;;;;;;;9.65;3.17;;;16.20;51.10;;;;;;5080406;28;20054;-64
2021/05/02 06:13:05;;;;;;;10.15;3.25;;;16.70;49.60;;;;;;5099459;28;20052;-64
2021/05/02 06:15:30;;;;;;;7.63;3.00;;;17.40;48.70;;;;;;5097073;28;20016;-64
2021/05/02 06:17:56;;;;;;;11.02;3.13;;;17.60;46.30;;;;;;5103937;28;20028;-64
2021/05/02 06:20:22;;;;;;;4.93;2.72;;;17.90;47.90;;;;;;5120242;28;20027;-64
2021/05/02 06:22:50;;;;;;;5.38;2.60;;;17.30;47.00;;;;;;5115027;28;20024;-64
2021/05/02 06:25:16;;;;;;;4.75;2.40;;;17.50;48.40;;;;;;5118359;28;20081;-64
2021/05/02 06:27:41;;;;;;;9.25;2.88;;;17.90;48.00;;;;;;5099313;28;20023;-64
2021/05/02 06:30:07;;;;;;;10.23;2.95;;;18.40;46.50;;;;;;5119914;28;20090;-64
2021/05/02 06:32:33;;;;;;;9.10;2.28;;;18.80;46.30;;;;;;5118671;28;20020;-64
2021/05/02 06:35:00;;;;;;;8.13;3.00;;;18.80;44.00;;;;;;5099902;28;20091;-64
2021/05/02 06:37:25;;;;;;;6.15;2.28;;;18.80;43.50;;;;;;5120282;27;20442;-65
2021/05/02 06:39:51;;;;;;;5.32;1.95;;;18.60;43.50;;;;;;5121731;27;20022;-65
2021/05/02 06:42:17;;;;;;;4.85;2.17;;;19.30;42.80;;;;;;5122830;27;20488;-64
2021/05/02 06:44:42;;;;;;;7.50;2.15;;;19.30;43.40;;;;;;5103896;27;20022;-65
2021/05/02 06:47:08;;;;;;;8.38;3.28;;;19.00;43.40;;;;;;5121657;27;20051;-65
2021/05/02 06:49:34;;;;;;;8.70;2.47;;;18.50;43.70;;;;;;5120103;27;20062;-65
2021/05/02 06:52:00;;;;;;;9.43;2.13;;;18.20;44.80;;;;;;5112808;28;20054;-65
2021/05/02 06:54:26;;;;;;;4.38;1.90;;;18.50;43.70;;;;;;5118395;27;20020;-65
2021/05/02 06:56:51;;;;;;;7.10;2.30;;;18.40;42.80;;;;;;5122675;27;20026;-65
2021/05/02 06:59:17;;;;;;;10.95;4.10;;;18.00;43.90;;;;;;5121873;27;20046;-65
2021/05/02 07:01:43;;;;;;;7.43;2.53;;;18.00;43.00;;;;;;5120585;27;20023;-65
2021/05/02 07:04:08;;;;;;;6.80;1.70;;;17.30;45.00;;;;;;5104849;27;20031;-65
2021/05/02 07:06:34;;;;;;;8.52;2.40;;;17.30;44.20;;;;;;5111869;28;20458;-65
2021/05/02 07:09:00;;;;;;;232.63;105.32;;;16.50;45.50;;;;;;5112066;28;20051;-65
2021/05/02 07:11:25;;;;;;;159.30;69.10;;;16.50;46.00;;;;;;5094284;28;20028;-66
2021/05/02 07:13:51;;;;;;;8.50;4.40;;;15.60;48.00;;;;;;5113602;27;20431;-64
2021/05/02 07:16:18;;;;;;;13.57;7.07;;;15.30;47.30;;;;;;5120466;27;20368;-65
2021/05/02 07:18:43;;;;;;;7.07;2.00;;;15.20;47.50;;;;;;5103088;27;20023;-65
2021/05/02 07:21:09;;;;;;;9.43;5.50;;;15.40;47.80;;;;;;5121445;27;20026;-65
2021/05/02 07:23:42;;;;;;;6.70;2.13;;;15.10;47.50;;;;;;5084152;27;20038;-65
2021/05/02 07:26:07;;;;;;;7.20;1.80;;;15.20;47.60;;;;;;5120162;27;20020;-65
2021/05/02 07:28:33;;;;;;;3.80;1.67;;;15.30;47.30;;;;;;5122790;27;20015;-65
2021/05/02 07:30:59;;;;;;;6.38;2.00;;;16.00;45.60;;;;;;5119742;27;20023;-65
2021/05/02 07:33:27;;;;;;;8.60;1.60;;;16.60;45.20;;;;;;5121789;27;20469;-65
2021/05/02 07:35:53;;;;;;;7.47;1.70;;;14.50;48.70;;;;;;5122099;27;20030;-64
2021/05/02 07:38:18;;;;;;;3.45;1.77;;;14.90;47.30;;;;;;5117232;27;20035;-65
2021/05/02 07:40:44;;;;;;;3.40;1.77;;;13.80;49.30;;;;;;5121211;27;20023;-63
2021/05/02 07:43:10;;;;;;;4.10;1.35;;;14.90;46.80;;;;;;5104243;27;20095;-64
2021/05/02 07:45:35;;;;;;;4.65;1.67;;;14.00;48.20;;;;;;5113158;27;20027;-64
2021/05/02 07:48:01;;;;;;;4.13;1.40;;;15.70;44.80;;;;;;5111712;28;20031;-63
2021/05/02 07:50:26;;;;;;;5.30;1.50;;;15.50;44.90;;;;;;5093477;28;20054;-63
2021/05/02 07:52:52;;;;;;;3.58;1.40;;;14.00;48.20;;;;;;5108618;28;20024;-64
2021/05/02 07:55:18;;;;;;;4.30;1.33;;;13.30;48.30;;;;;;5111643;28;20403;-63
2021/05/02 07:57:43;;;;;;;17.30;8.98;;;14.60;45.00;;;;;;5116507;27;20098;-64
2021/05/02 08:00:09;;;;;;;4.03;2.58;;;15.80;43.20;;;;;;5103097;27;20044;-64
2021/05/02 08:02:35;;;;;;;3.00;1.77;;;14.60;46.80;;;;;;5128700;27;20028;-64
2021/05/02 08:05:00;;;;;;;7.95;1.52;;;14.50;46.20;;;;;;5131734;27;20031;-64
2021/05/02 08:07:26;;;;;;;4.47;1.70;;;15.70;43.70;;;;;;5130901;27;20027;-64
2021/05/02 08:09:52;;;;;;;6.15;1.90;;;15.10;44.80;;;;;;5097641;28;20102;-64
2021/05/02 08:12:17;;;;;;;2.38;1.55;;;15.40;43.60;;;;;;5111287;28;20042;-63
2021/05/02 08:14:43;;;;;;;4.90;1.65;;;15.70;43.10;;;;;;5109361;28;20044;-63
2021/05/02 08:17:09;;;;;;;6.43;2.20;;;16.00;41.20;;;;;;5111282;28;20031;-63
2021/05/02 08:19:34;;;;;;;5.07;1.60;;;15.80;43.90;;;;;;5091840;28;20019;-63
2021/05/02 08:22:02;;;;;;;2.97;1.52;;;15.00;45.00;;;;;;5092493;28;20024;-64
2021/05/02 08:24:29;;;;;;;2.65;1.33;;;14.10;46.20;;;;;;5108475;28;20035;-65
2021/05/02 08:26:55;;;;;;;2.35;1.20;;;13.30;49.30;;;;;;5074944;28;20100;-65
2021/05/02 08:29:20;;;;;;;2.75;1.40;;;14.00;47.60;;;;;;5092020;28;20465;-66
2021/05/02 08:31:46;;;;;;;3.33;1.25;;;15.00;45.60;;;;;;5110114;28;20026;-65
2021/05/02 08:34:12;;;;;;;3.40;1.20;;;15.90;44.00;;;;;;5110882;28;20493;-67
2021/05/02 08:36:37;;;;;;;5.43;1.10;;;16.40;42.20;;;;;;5109305;28;20035;-66
2021/05/02 08:39:03;;;;;;;12.48;4.95;;;15.00;44.20;;;;;;5110686;28;20521;-66
2021/05/02 08:41:29;;;;;;;3.20;1.42;;;14.80;44.90;;;;;;5110429;28;20035;-65
2021/05/02 08:43:56;;;;;;;6.55;2.05;;;14.00;45.00;;;;;;5109490;28;20035;-65
2021/05/02 08:46:22;;;;;;;4.78;1.67;;;13.50;46.70;;;;;;5058510;28;20023;-64
2021/05/02 08:48:47;;;;;;;3.85;2.17;;;13.20;47.50;;;;;;5109787;28;20157;-63
2021/05/02 08:51:14;;;;;;;6.07;1.55;;;12.70;48.70;;;;;;5110096;28;20046;-63
2021/05/02 08:53:40;;;;;;;4.88;1.67;;;13.60;47.90;;;;;;5107024;28;20027;-63
2021/05/02 08:56:05;;;;;;;2.50;1.30;;;14.50;46.40;;;;;;5110698;28;20427;-63
2021/05/02 08:58:31;;;;;;;2.45;1.50;;;14.00;47.00;;;;;;5091839;28;20525;-63
2021/05/02 09:00:58;;;;;;;3.15;1.65;;;14.30;46.70;;;;;;5109062;28;20031;-64
2021/05/02 09:03:56;;;;;;;8.05;1.67;;;14.20;46.40;;;;;;5055036;28;20024;-62
2021/05/02 09:06:28;;;;;;;6.72;2.85;;;13.50;47.70;;;;;;5033492;28;20040;-63
2021/05/02 09:08:57;;;;;;;11.40;5.20;;;12.30;50.00;;;;;;5089735;28;20020;-64
2021/05/02 09:11:36;;;;;;;4.63;1.30;;;13.00;50.00;;;;;;5091257;28;20017;-64
2021/05/02 09:14:07;;;;;;;5.20;1.50;;;13.00;49.80;;;;;;5095007;28;20067;-65
2021/05/02 09:16:48;;;;;;;4.97;1.48;;;12.80;49.50;;;;;;5112210;27;20032;-66
2021/05/02 09:19:15;;;;;;;2.83;1.25;;;13.90;47.10;;;;;;5130579;27;20023;-61
2021/05/02 09:21:41;;;;;;;6.68;1.50;;;14.80;45.40;;;;;;5110730;28;20445;-62
2021/05/02 09:24:27;;;;;;;5.15;1.38;;;15.00;44.20;;;;;;5126041;28;20102;-62
2021/05/02 09:27:06;;;;;;;5.20;1.30;;;14.80;44.10;;;;;;5109409;28;20122;-63
2021/05/02 09:29:32;;;;;;;2.70;1.50;;;14.00;45.10;;;;;;5110046;28;20126;-65
2021/05/02 09:31:58;;;;;;;2.97;1.70;;;14.00;45.80;;;;;;5076860;28;20019;-67
2021/05/02 09:34:25;;;;;;;2.92;1.40;;;13.60;46.00;;;;;;5108089;28;20662;-65
2021/05/02 09:37:02;;;;;;;1.70;1.30;;;13.00;47.90;;;;;;5111602;28;20047;-67
2021/05/02 09:39:55;;;;;;;6.75;3.80;;;12.50;48.80;;;;;;5104735;28;20023;-66
2021/05/02 09:42:30;;;;;;;42.58;19.85;;;12.00;51.40;;;;;;5121928;28;20019;-69
2021/05/02 09:44:57;;;;;;;22.45;10.98;;;11.40;54.60;;;;;;5085605;28;20079;-66
2021/05/02 09:47:33;;;;;;;4.20;2.40;;;10.70;57.90;;;;;;5094514;28;20036;-65
2021/05/02 09:50:09;;;;;;;6.43;1.85;;;10.30;59.00;;;;;;5108635;28;20028;-65
2021/05/02 09:52:52;;;;;;;5.35;2.22;;;9.80;60.20;;;;;;5109026;28;20024;-65
2021/05/02 09:55:41;;;;;;;2.65;1.75;;;9.70;60.80;;;;;;5105530;28;20076;-65
2021/05/02 09:58:16;;;;;;;2.45;1.48;;;9.60;59.40;;;;;;5123866;28;20087;-66
2021/05/02 10:00:51;;;;;;;2.67;1.20;;;9.50;57.90;;;;;;5110488;28;20078;-66
2021/05/02 10:03:24;;;;;;;3.30;1.25;;;9.40;59.70;;;;;;5105818;28;20019;-66
2021/05/02 10:05:58;;;;;;;2.08;1.52;;;9.50;59.20;;;;;;5129090;28;20036;-65
2021/05/02 10:08:28;;;;;;;1.13;1.02;;;9.60;58.40;;;;;;5129875;28;20492;-65
2021/05/02 10:10:54;;;;;;;1.85;0.98;;;9.80;57.80;;;;;;5094566;28;20073;-65
2021/05/02 10:13:20;;;;;;;2.40;1.13;;;10.00;57.50;;;;;;5096314;27;20091;-65
2021/05/02 10:15:45;;;;;;;2.05;1.20;;;10.40;56.20;;;;;;5114874;27;20031;-66
2021/05/02 10:18:11;;;;;;;4.47;1.45;;;10.70;54.70;;;;;;5098776;27;20475;-66
2021/05/02 10:20:37;;;;;;;1.35;1.00;;;10.90;54.10;;;;;;5132683;27;20106;-66
2021/05/02 10:23:03;;;;;;;9.95;5.50;;;11.30;54.40;;;;;;5113582;27;20034;-66
2021/05/02 10:25:29;;;;;;;7.40;4.60;;;11.80;52.70;;;;;;5101101;28;20604;-66
2021/05/02 10:27:54;;;;;;;2.22;1.40;;;12.00;50.90;;;;;;5093994;28;20119;-66
2021/05/02 10:30:26;;;;;;;4.82;1.60;;;12.00;51.50;;;;;;5094927;28;20110;-66
2021/05/02 10:32:58;;;;;;;2.65;1.20;;;11.90;52.10;;;;;;5112648;28;20059;-66
2021/05/02 10:35:24;;;;;;;4.65;1.60;;;12.10;51.10;;;;;;5078113;28;20023;-66
2021/05/02 10:37:56;;;;;;;3.90;1.65;;;12.10;51.10;;;;;;5112512;28;20099;-66
2021/05/02 10:40:21;;;;;;;3.38;1.25;;;12.00;51.70;;;;;;5112879;28;20023;-65
2021/05/02 10:42:50;;;;;;;3.38;1.63;;;12.20;51.20;;;;;;5112044;28;20076;-65
2021/05/02 10:45:31;;;;;;;3.28;1.40;;;12.20;51.00;;;;;;5113025;28;20470;-65
2021/05/02 10:48:00;;;;;;;3.25;1.52;;;12.10;52.10;;;;;;5112485;28;20106;-65
2021/05/02 10:50:30;;;;;;;2.13;1.38;;;11.90;51.80;;;;;;5093804;28;20024;-65
2021/05/02 10:53:03;;;;;;;3.17;1.30;;;11.90;50.50;;;;;;5091669;28;20055;-65
2021/05/02 10:55:49;;;;;;;2.78;1.20;;;12.00;48.10;;;;;;5112338;28;20023;-65
2021/05/02 10:58:24;;;;;;;3.22;1.10;;;12.10;49.00;;;;;;5094793;28;20028;-65
2021/05/02 11:01:04;;;;;;;1.63;1.33;;;12.20;51.00;;;;;;5093785;28;20085;-65
2021/05/02 11:03:35;;;;;;;2.67;0.90;;;11.90;47.90;;;;;;5112219;28;20023;-65
2021/05/02 11:06:10;;;;;;;1.38;1.02;;;12.10;46.80;;;;;;5112755;28;20077;-65
2021/05/02 11:08:45;;;;;;;1.73;1.05;;;12.40;48.50;;;;;;5093463;28;20020;-65
2021/05/02 11:11:32;;;;;;;3.33;1.25;;;12.10;48.20;;;;;;5112107;28;20028;-65
2021/05/02 11:16:33;;;;;;;3.03;1.13;;;12.00;48.60;;;;;;5112404;28;20103;-65
2021/05/02 11:19:00;;;;;;;1.23;0.85;;;11.80;49.00;;;;;;5111780;28;20020;-65
2021/05/02 11:21:25;;;;;;;3.83;1.20;;;11.70;49.20;;;;;;5093282;28;20064;-65
2021/05/02 11:23:56;;;;;;;2.92;1.05;;;11.90;49.90;;;;;;5108642;28;20012;-65
2021/05/02 11:26:46;;;;;;;2.05;1.17;;;12.00;47.90;;;;;;5091008;28;20024;-65
2021/05/02 11:29:18;;;;;;;6.75;3.88;;;12.00;47.40;;;;;;5091866;28;20024;-65
2021/05/02 11:31:44;;;;;;;3.05;1.20;;;12.00;48.50;;;;;;5091330;28;20020;-65
2021/05/02 11:34:09;;;;;;;2.72;1.30;;;11.70;49.60;;;;;;5091578;28;20039;-65
2021/05/02 11:36:39;;;;;;;3.00;1.30;;;11.90;48.10;;;;;;5072692;28;20473;-65
2021/05/02 11:39:05;;;;;;;1.83;1.10;;;11.80;49.80;;;;;;5091571;28;20110;-65
2021/05/02 11:42:12;;;;;;;2.65;1.20;;;11.90;49.40;;;;;;5090849;28;20032;-65
2021/05/02 11:44:38;;;;;;;3.03;1.50;;;12.10;49.80;;;;;;5016623;28;20029;-66
2021/05/02 11:47:07;;;;;;;4.40;1.70;;;12.50;53.10;;;;;;5029055;28;20427;-65
2021/05/02 11:49:40;;;;;;;5.53;1.40;;;12.30;52.50;;;;;;5051990;28;20044;-66
2021/05/02 11:52:06;;;;;;;3.17;1.50;;;11.70;54.00;;;;;;5072849;28;20032;-65
2021/05/02 11:54:31;;;;;;;2.08;1.17;;;11.60;53.90;;;;;;5053471;28;20020;-65
2021/05/02 11:56:57;;;;;;;4.15;1.40;;;11.40;54.50;;;;;;5112904;27;20717;-65
2021/05/02 11:59:23;;;;;;;4.57;1.45;;;11.50;54.10;;;;;;5100949;28;20414;-66
2021/05/02 12:01:49;;;;;;;1.75;1.35;;;11.50;54.30;;;;;;5111424;28;20019;-66
2021/05/02 12:04:19;;;;;;;3.67;1.42;;;11.40;54.20;;;;;;5092563;28;20027;-66
2021/05/02 12:06:46;;;;;;;4.05;1.63;;;11.40;54.70;;;;;;5076767;28;20020;-66
2021/05/02 12:09:13;;;;;;;4.20;1.65;;;11.40;55.30;;;;;;5076557;28;20101;-66
2021/05/02 12:11:40;;;;;;;5.80;1.40;;;11.40;55.30;;;;;;5110372;28;20039;-66
2021/05/02 12:14:05;;;;;;;2.65;1.48;;;11.40;55.20;;;;;;5092736;28;20073;-66
2021/05/02 12:16:31;;;;;;;2.97;1.00;;;11.30;54.90;;;;;;5111028;28;20034;-65
2021/05/02 12:18:56;;;;;;;2.25;1.40;;;11.30;53.90;;;;;;5110379;28;20522;-66
2021/05/02 12:21:36;;;;;;;6.80;1.70;;;11.10;55.30;;;;;;5111025;28;20024;-65
2021/05/02 12:24:12;;;;;;;4.22;1.60;;;11.10;56.70;;;;;;5090374;28;20019;-65
2021/05/02 12:26:45;;;;;;;3.78;1.42;;;11.50;56.00;;;;;;5092484;28;20020;-65
2021/05/02 12:29:14;;;;;;;2.88;1.15;;;11.60;54.80;;;;;;5111035;28;20082;-66
2021/05/02 12:31:39;;;;;;;4.30;0.88;;;11.60;52.70;;;;;;5075146;28;20027;-66
2021/05/02 12:34:10;;;;;;;13.60;7.90;;;11.60;53.20;;;;;;5075357;28;20072;-63
2021/05/02 12:36:35;;;;;;;7.40;4.45;;;11.70;52.90;;;;;;5090307;28;20031;-63
2021/05/02 12:39:02;;;;;;;1.73;1.20;;;11.80;53.00;;;;;;5092218;28;20028;-64
2021/05/02 12:41:28;;;;;;;2.38;1.17;;;11.90;52.40;;;;;;5109933;28;20125;-66
2021/05/02 12:43:54;;;;;;;3.47;1.13;;;12.00;51.90;;;;;;5109644;28;20118;-64
2021/05/02 12:46:39;;;;;;;4.72;1.58;;;12.00;51.20;;;;;;5110283;28;20032;-64
2021/05/02 12:49:34;;;;;;;3.10;1.05;;;12.30;51.10;;;;;;5091677;28;20031;-66
2021/05/02 12:52:11;;;;;;;2.97;1.40;;;12.10;52.40;;;;;;5088640;28;20031;-66